logo dgac
Martes 21 de Septiembre del 2021
Buscar por aerodromo o helipuerto
Ingrese nombre de aeródromo, localidad o designador OACI:
TAF: TAF SCVD 211021Z 2112/2200 16006KT CAVOK TN03/2112Z TX21/2120Z TEMPO 2112/2114 VRB02KT 2000 BR SCT003 BECMG 2120/2122 VRB02KT
TAF del 21/09/2021 a las 10:21 UTC
Para mayor información visite www.meteochile.cl
Período de validez: desde el 21 a las 12:00 UTC hasta el 22 a las 00:00 UTC
Viento: dirección 160 grados, velocidad 6 nudos
Visibilidad: 10 km o más,
    sin nubes bajo los 5.000 pies o bajo del MSA (Mínimo de Seguridad del Aeródromo),
    sin cumulonimbus, y sin fenómenos de tiempo significativo en el aeródromo o alrededores
Temperatura mínima: 3ºC el 21 a las 12:00 UTC
Temperatura máxima: 21ºC el 21 a las 20:00 UTC
Se espera en forma temporal entre las 12:00 UTC del 21 y las 14:00 UTC del 21:
Viento: dirección variable, velocidad 2 nudos
Visibilidad: 2000 metros
Neblina
Nubes: Nubosidad parcial a 300 pies sobre el nivel del aeródromo
Se espera un cambio entre las 20:00 UTC del 21 y las 22:00 UTC del 21, :
Viento: dirección variable, velocidad 2 nudos